Grants, NM

3:51 PM MDT on August 29, 2016 (GMT -0600)
Grants-Milan Municipal | | Change Station

Elev 6519 ft 35.17 °N, 107.90 °W | Updated 16 minutes ago

Scattered Clouds
Scattered Clouds
76 °F
Feels Like 76 °F
N
7
Wind Variable Wind from NNW

Today
High -- | Low -- °F
--% Chance of Precip.
Yesterday
High -- | Low -- °F
Precip. -- in
Pressure 30.30 in
Visibility 10.0 miles
Clouds Scattered Clouds 8000 ft
Dew Point 40 °F
Humidity 27%
Rainfall 0.00 in
Snow Depth Not available.
6:41 AM 7:41 PM
Waning Crescent, 7% visible
METAR KGNT 292135Z AUTO 33006KT 10SM SCT080 25/04 A3030 RMK AO2 LTG DSNT N T02470043
Pressure 30.30 in
Visibility 10.0 miles
Clouds Scattered Clouds 8000 ft
Dew Point 40 °F
Humidity 27%
Rainfall 0.00 in
Snow Depth Not available.
6:41 AM 7:41 PM
Waning Crescent, 7% visible
METAR KGNT 292135Z AUTO 33006KT 10SM SCT080 25/04 A3030 RMK AO2 LTG DSNT N T02470043

10-Day Weather Forecast

Almanac

Astronomy

Aug. 29, 2016 Rise Set
Actual Time
Civil Twilight
Nautical Twilight
Astronomical Twilight
Moon
Length of Visible Light
Length of Day
Tomorrow will be .
, % of the Moon is Illuminated

Today's Extremes

State Highs State Lows

Community

WunderPhotos

Upload Photos

1,935,690 photos uploaded!

WunderBlog® & News

Nearby

Air Quality

  Air Quality AQ Index Pollutant
Not available.

Snow Depth

Station Depth Elevation

Earthquake Activity

City Distance Mag. Time & Date
Minimum magnitude displayed is 2.5.

Coastal Water Temperatures

Place Temperature

Stations

Nearby Weather Stations

Station Location Temp. Windchill Dew Point Humidity Wind Precip. Elev Updated Type
                   

Watches & Warnings

There are currently no watches in effect.